Date,TemperatureHighF,TemperatureAvgF,TemperatureLowF,DewpointHighF,DewpointAvgF,DewpointLowF,HumidityHigh,HumidityAvg,HumidityLow,PressureMaxIn,PressureMinIn,WindSpeedMaxMPH,WindSpeedAvgMPH,GustSpeedMaxMPH,PrecipitationSumIn
2012-4-8,52.7,52.7,52.7,33.0,33.0,33.0,47,47,47,28.94,28.94,0,0,0,0.00
2012-4-14,66.2,60.2,57.9,51.4,42.7,31.5,79,54,28,27.85,27.80,14,4,21,0.00
2012-4-15,71.4,61.6,57.6,61.4,55.4,0.0,90,81,67,27.81,27.72,9,5,14,0.05
2012-4-16,86.2,69.9,55.6,64.2,54.4,0.0,87,60,34,27.85,27.65,18,6,29,0.00
2012-4-17,56.5,49.7,39.2,41.5,36.4,31.0,74,61,46,28.10,27.85,15,5,29,0.00
2012-4-18,64.4,46.9,33.3,37.0,32.2,27.1,89,60,32,28.10,27.88,9,2,13,0.00
2012-4-19,71.4,59.3,40.8,47.9,41.0,28.7,75,52,36,27.88,27.79,10,4,21,0.00
2012-4-20,83.7,69.0,54.3,53.2,45.3,36.8,77,46,20,27.80,27.60,12,3,21,0.00
2012-4-21,59.7,46.9,40.8,52.3,43.4,38.5,96,88,64,27.82,27.63,9,2,13,0.58
2012-4-22,43.3,41.2,39.7,40.2,38.5,36.6,95,90,80,29.96,27.78,14,5,21,0.03
2012-4-23,40.6,36.4,34.7,39.0,35.7,34.3,100,97,93,29.91,29.15,14,4,23,0.56
2012-4-24,42.8,38.6,34.5,38.4,35.2,32.8,100,88,73,29.50,29.12,12,4,21,0.22
2012-4-25,57.0,46.8,38.5,36.1,31.5,24.6,85,58,31,29.78,29.50,17,4,23,0.01
2012-4-26,63.3,48.6,39.9,46.3,36.3,28.8,92,65,38,29.75,29.47,14,4,20,0.11
2012-4-27,42.6,38.5,35.4,37.5,34.0,27.3,91,84,72,29.83,29.72,13,7,19,0.01
2012-4-28,57.6,47.6,36.3,32.9,23.5,13.8,58,39,28,30.15,30.07,8,3,24,0.00
2012-4-29,59.7,45.2,32.4,29.3,23.4,14.7,68,45,20,30.19,30.09,15,3,21,0.00
2012-4-30,61.5,48.2,32.4,49.5,32.9,20.2,94,60,25,30.19,29.84,9,2,14,0.26
2012-5-1,59.4,54.5,50.5,53.9,50.6,48.0,98,87,74,29.98,29.75,8,2,12,0.05
2012-5-2,79.2,65.1,51.3,66.0,56.6,45.6,94,76,50,29.96,29.78,11,2,16,0.00
2012-5-3,88.5,73.6,61.2,68.4,63.2,52.9,97,72,49,29.98,29.78,26,2,26,0.10
2012-5-4,78.3,67.9,60.6,64.5,60.9,57.0,95,79,55,29.90,29.80,8,3,14,0.02
2012-5-5,67.1,57.7,46.4,57.6,43.1,29.7,82,60,33,30.03,29.89,11,5,17,0.00
2012-5-6,72.9,56.7,39.2,43.6,36.4,0.0,92,53,23,30.04,29.96,10,1,13,0.00
2012-5-7,66.6,59.6,54.0,60.7,47.5,0.0,94,67,39,30.00,29.69,12,2,14,0.12
2012-5-8,68.7,62.7,57.0,62.0,58.4,51.5,96,86,67,29.71,29.63,6,2,10,0.23
2012-5-9,69.6,60.1,50.2,54.7,50.1,41.9,93,72,40,29.69,29.56,13,3,18,0.00
2012-5-10,61.2,52.8,45.3,47.4,37.1,28.0,89,58,32,29.79,29.57,18,8,29,0.01
2012-5-11,70.7,57.3,45.1,42.8,36.5,32.0,72,48,27,30.04,29.78,15,5,23,0.00
2012-5-12,76.5,65.0,52.7,46.7,41.2,36.3,64,44,26,30.12,30.04,10,3,19,0.00
2012-5-13,78.4,65.4,56.1,57.2,49.7,45.0,76,58,38,30.12,30.01,10,1,14,0.00
2012-5-14,82.6,67.2,54.3,57.0,53.0,49.3,92,63,35,30.02,29.90,7,1,9,0.00
2012-5-15,83.7,67.5,54.1,59.3,51.2,43.2,95,61,30,29.92,29.79,7,1,9,0.00
2012-5-16,75.7,61.6,46.9,56.9,45.4,37.4,84,56,40,29.99,29.71,14,4,21,0.01
2012-5-17,70.7,54.9,41.4,41.6,37.3,29.8,86,56,26,30.11,29.99,10,2,13,0.00
2012-5-18,83.5,62.9,42.6,46.2,40.1,30.8,83,48,21,30.13,30.02,8,2,12,0.00
2012-5-19,92.5,72.1,53.4,56.0,48.5,42.3,78,47,20,30.09,30.02,7,1,12,0.00
2012-5-20,95.7,76.4,55.8,60.1,52.9,45.2,87,49,21,30.13,30.00,7,1,10,0.00
2012-5-21,86.7,74.6,67.5,65.8,57.1,46.1,91,56,40,30.00,29.83,10,2,21,0.03
2012-5-22,81.3,70.7,63.7,67.6,62.9,57.6,90,77,54,29.84,29.74,9,2,14,0.05
2012-5-23,80.8,69.9,61.5,63.0,60.2,57.4,88,73,51,29.90,29.81,8,1,10,0.00
2012-5-24,85.5,74.2,60.4,64.6,60.3,56.4,94,65,42,29.96,29.86,9,2,15,0.00
2012-5-25,88.9,78.3,70.3,71.0,63.4,57.7,79,61,40,29.98,29.87,9,3,16,0.03
2012-5-26,86.0,74.0,60.6,60.2,54.3,45.8,86,53,31,30.11,29.98,9,1,12,0.00
2012-5-27,90.3,71.5,56.5,61.0,54.7,47.7,87,58,31,30.10,29.85,7,1,10,0.00
2012-5-28,91.6,78.2,61.5,70.3,64.4,55.5,91,65,43,29.90,29.69,8,2,13,0.00
2012-5-29,87.1,77.5,67.5,69.7,66.6,60.4,91,70,53,29.69,29.57,11,4,20,0.06
2012-5-30,78.6,69.8,60.1,64.9,53.9,43.9,92,60,34,29.76,29.63,10,3,16,0.00
2012-5-31,72.7,61.1,52.7,51.6,46.8,42.0,80,61,38,29.91,29.75,9,2,13,0.00
2012-6-1,63.3,58.2,54.0,61.9,54.4,43.5,95,87,66,29.90,29.46,8,2,14,0.66
2012-6-2,69.4,60.1,55.4,57.3,49.9,41.2,96,71,44,29.63,29.51,12,3,21,0.01
2012-6-3,66.9,59.2,55.4,58.6,53.7,45.7,95,83,56,29.61,29.55,9,3,15,0.37
2012-6-4,57.7,54.7,51.4,55.7,52.9,49.8,97,94,88,29.79,29.57,10,2,17,0.06
2012-6-5,75.0,61.6,52.5,54.2,50.9,45.3,96,71,40,29.89,29.78,10,2,13,0.00
2012-6-6,77.9,63.3,51.1,55.9,51.6,46.3,92,69,40,29.91,29.83,14,2,20,0.22
2012-6-7,81.0,66.7,56.3,58.1,54.9,51.8,94,69,41,29.92,29.84,9,2,16,0.00
2012-6-8,80.8,69.3,59.2,61.8,53.0,47.5,80,58,38,29.88,29.77,11,3,17,0.00
2012-6-9,75.2,68.6,61.7,64.9,59.9,47.3,92,75,49,29.87,29.77,8,2,12,0.06
2012-6-10,91.2,77.9,65.8,64.2,60.1,51.8,88,58,27,30.00,29.85,8,1,12,0.03
2012-6-11,90.9,79.1,64.9,67.3,61.7,57.8,88,58,35,30.00,29.87,10,2,14,0.04
2012-6-12,79.5,70.6,61.3,73.2,66.4,53.5,96,87,63,29.88,29.70,15,2,21,0.93
2012-6-13,76.3,63.0,52.2,56.0,50.9,45.8,90,67,37,30.10,29.88,8,3,12,0.00
2012-6-14,82.8,66.9,52.3,68.7,53.0,49.5,95,65,34,30.19,30.10,10,2,13,0.00
2012-6-15,91.9,74.1,56.5,65.4,56.3,50.4,87,57,31,30.19,30.12,10,2,15,0.00
2012-6-16,90.9,78.3,65.3,63.5,58.7,50.6,78,53,36,30.19,30.06,6,2,12,0.00
2012-6-17,86.5,83.6,72.0,64.5,59.6,0.0,61,45,40,30.06,30.06,8,3,12,0.00
2012-6-18,88.2,75.5,66.9,68.8,64.2,58.5,91,69,49,29.87,29.78,9,2,13,0.06
2012-6-19,88.7,78.6,68.2,70.8,67.0,64.0,93,69,49,29.95,29.86,9,3,18,0.08
2012-6-20,86.5,79.6,75.9,70.5,65.2,61.5,69,62,44,30.01,29.93,5,2,12,0.00
2012-6-21,90.7,82.4,73.0,68.3,63.9,59.1,79,55,39,30.01,30.01,10,3,18,0.00
2012-6-22,84.7,74.4,65.3,67.0,62.4,56.5,91,68,42,30.01,30.01,10,2,14,0.06
2012-6-23,85.6,71.9,58.8,60.0,56.0,51.4,86,60,33,30.01,29.92,10,2,14,0.00
2012-6-24,81.7,70.9,60.8,61.2,56.6,50.8,85,63,39,29.95,29.73,6,2,12,0.00
2012-6-25,70.0,64.9,59.9,61.5,52.2,42.9,91,65,41,29.80,29.71,17,6,21,0.00
2012-6-26,78.3,67.2,55.9,54.8,49.3,41.5,88,56,33,29.83,29.72,16,6,24,0.00
2012-6-27,78.3,69.4,58.6,58.9,53.3,45.0,85,59,33,29.81,29.72,12,3,18,0.00
2012-6-28,91.2,78.5,65.5,61.0,57.4,52.6,73,50,32,29.77,29.58,7,2,13,0.00
2012-6-29,89.4,80.3,72.9,67.2,60.3,50.8,79,53,30,29.66,29.56,9,3,18,0.00
2012-6-30,89.4,77.9,69.1,65.8,60.7,52.2,85,59,30,29.70,29.62,12,4,21,0.00
2012-7-1,88.9,77.8,67.6,63.4,58.3,47.4,84,54,28,29.85,29.69,16,3,22,0.00
2012-7-2,90.0,76.1,61.7,61.2,55.7,49.5,81,53,27,29.93,29.84,12,2,17,0.00
2012-7-3,91.0,75.0,61.7,71.2,61.9,55.9,86,66,36,29.89,29.70,8,2,14,0.02
2012-7-4,92.8,80.9,70.2,74.5,69.1,63.5,83,69,45,29.76,29.67,11,3,18,0.00
2012-7-5,94.5,81.3,68.9,70.3,64.7,61.1,89,60,36,29.84,29.72,9,2,13,0.00
2012-7-6,95.9,82.9,71.2,73.4,68.8,63.7,83,65,39,29.85,29.78,11,3,16,0.00
2012-7-7,89.2,77.1,70.5,73.1,68.7,63.0,95,77,49,29.90,29.76,18,2,25,0.29
2012-7-8,89.8,77.1,66.4,67.1,63.0,55.0,91,65,35,29.87,29.81,10,2,15,0.00
2012-7-9,88.7,75.1,62.2,61.9,55.7,48.3,92,56,27,29.95,29.86,8,2,12,0.00
2012-7-10,87.3,73.4,58.6,62.3,54.2,43.6,89,55,25,30.02,29.90,9,2,13,0.00
2012-7-11,92.8,74.6,55.9,58.2,51.1,43.3,83,50,21,30.08,30.02,11,2,15,0.00
2012-7-12,98.8,78.9,60.1,60.4,55.8,48.6,80,48,25,30.07,30.00,10,2,14,0.00
2012-7-13,99.0,79.5,64.0,66.5,62.6,57.2,87,59,30,30.09,30.02,12,1,17,0.00
2012-7-14,95.0,81.9,70.9,66.7,62.0,57.3,73,53,31,30.08,29.94,7,2,13,0.00
2012-7-15,89.1,78.1,73.4,73.3,66.7,56.4,90,70,34,29.99,29.83,9,2,14,0.02
2012-7-16,94.3,80.9,72.1,71.3,65.2,55.1,94,63,30,29.86,29.74,12,3,16,0.00
2012-7-17,95.9,86.0,77.0,72.4,64.2,53.4,79,49,39,29.76,29.62,14,5,24,0.01
2012-7-18,88.5,79.7,66.6,72.3,65.8,56.3,91,65,39,29.87,29.68,10,2,13,0.01
2012-7-19,83.8,70.5,61.7,65.3,59.6,52.8,91,71,39,29.92,29.85,11,3,16,0.02
2012-7-20,74.3,69.1,64.6,63.9,59.4,54.7,92,72,53,29.96,29.89,7,1,12,0.03
2012-7-21,87.1,73.6,60.1,63.7,60.0,54.3,96,67,37,30.00,29.91,6,1,10,0.00
2012-7-22,90.0,77.9,67.6,65.8,62.2,59.8,80,60,42,29.99,29.91,9,3,15,0.00
2012-7-23,95.9,83.7,73.2,72.3,65.5,57.6,87,56,33,29.93,29.62,13,4,22,0.11
2012-7-24,86.4,76.8,63.7,73.4,62.4,49.5,92,64,35,29.82,29.63,15,4,24,0.01
2012-7-25,89.8,74.1,61.0,63.7,57.1,50.7,90,60,28,29.89,29.63,8,1,12,0.08
2012-7-26,80.4,74.0,66.4,71.7,68.3,62.5,95,83,69,29.65,29.48,9,2,16,0.69
2012-7-27,87.8,75.7,69.3,71.2,66.1,60.6,96,74,48,29.82,29.56,9,2,12,0.03
2012-7-28,83.8,73.4,65.1,69.2,64.3,57.7,95,75,46,29.92,29.81,10,1,14,0.26
2012-7-29,92.3,75.3,61.9,64.7,59.4,53.1,90,63,29,29.97,29.90,8,1,11,0.00
2012-7-30,88.7,75.4,61.5,64.0,58.0,51.3,92,59,30,29.95,29.87,8,1,14,0.00
2012-7-31,91.6,74.9,66.7,70.4,66.4,59.6,99,77,43,29.88,29.69,15,2,22,2.83
2012-8-1,88.0,76.1,66.7,70.1,66.0,60.6,97,74,43,29.78,29.72,10,2,14,0.00
2012-8-2,87.1,76.5,66.6,68.8,65.1,58.9,94,70,45,29.81,29.74,6,1,12,0.00
2012-8-3,98.4,81.7,72.1,72.4,66.4,60.0,83,62,37,29.95,29.79,6,1,9,0.00
2012-8-4,94.3,83.3,73.0,73.9,70.3,66.6,86,67,46,29.98,29.87,11,3,15,0.00
2012-8-5,85.8,78.2,70.3,74.7,70.5,65.4,97,78,63,29.92,29.77,11,3,21,2.23
2012-8-6,82.9,70.5,61.7,65.6,57.5,51.6,85,65,38,30.03,29.91,8,2,12,0.00
2012-8-7,86.7,73.1,59.0,62.2,56.3,49.4,81,58,34,29.92,29.82,8,1,12,0.00
2012-8-8,90.0,77.0,65.1,68.8,61.8,54.8,77,61,37,29.87,29.81,12,1,18,0.00
2012-8-9,84.0,77.4,71.1,68.8,65.4,59.5,90,68,47,29.81,29.68,7,1,11,0.00
2012-8-10,82.0,71.7,68.5,71.6,66.8,62.8,95,85,60,29.72,29.57,8,1,14,1.47
2012-8-11,75.7,68.9,63.7,66.5,61.1,57.5,95,77,58,29.76,29.60,10,3,18,0.01
2012-8-12,78.6,69.7,65.1,66.6,63.2,59.8,94,81,57,29.86,29.74,10,2,18,0.04
2012-8-13,84.7,72.7,65.1,65.3,63.4,58.3,95,75,44,29.91,29.84,5,1,8,0.00
2012-8-14,84.7,70.6,66.2,70.9,65.1,61.7,95,84,51,29.86,29.73,8,1,12,1.28
2012-8-15,86.9,71.9,62.4,67.9,63.8,55.9,98,78,41,29.85,29.77,8,1,11,0.23
2012-8-16,84.6,73.3,64.0,65.8,61.6,53.9,96,70,36,29.87,29.68,6,1,11,0.00
2012-8-17,78.1,71.7,63.7,67.9,60.6,52.5,93,69,48,29.81,29.62,11,2,16,0.04
2012-8-18,81.5,64.2,54.7,55.9,51.7,44.6,91,67,38,29.89,29.80,8,1,13,0.00
2012-8-19,84.9,66.3,52.9,57.8,52.5,48.2,92,65,34,29.88,29.76,6,0,8,0.00
2012-8-20,82.6,68.1,57.0,61.4,55.1,48.7,89,66,41,29.87,29.77,8,1,13,0.00
2012-8-21,84.4,66.4,51.8,55.1,49.9,42.5,92,61,28,29.99,29.87,6,1,9,0.00
2012-8-22,84.0,69.8,57.9,60.1,54.8,49.7,81,61,40,30.05,29.98,7,1,10,0.00
2012-8-23,86.4,72.1,58.8,61.2,55.0,50.0,78,57,35,30.06,30.00,6,1,11,0.00
2012-8-24,94.8,75.8,59.7,65.6,58.4,52.3,83,58,31,30.08,30.02,7,1,9,0.00
2012-8-25,91.2,78.3,65.5,65.5,60.7,56.1,82,57,34,30.13,30.04,7,1,12,0.00
2012-8-26,90.0,76.5,65.5,68.8,63.5,58.3,85,65,49,30.16,30.00,6,1,12,0.00
2012-8-27,81.3,73.5,69.1,70.8,66.7,62.8,93,80,62,30.00,29.81,6,1,12,0.04
2012-8-28,81.5,71.1,60.6,69.4,62.2,53.2,96,75,46,29.92,29.80,14,3,18,0.00
2012-8-29,80.8,65.3,55.4,56.9,51.4,43.0,93,65,32,29.99,29.91,8,1,12,0.00
2012-8-30,85.5,70.0,57.4,63.2,57.9,50.3,83,67,44,30.00,29.89,7,2,10,0.00
2012-8-31,89.8,78.0,68.5,71.4,59.2,52.0,81,53,39,29.91,29.78,11,4,22,0.00
2012-9-1,93.0,75.6,63.7,66.5,58.6,51.8,81,58,28,30.02,29.90,9,1,14,0.00
2012-9-2,92.5,73.2,57.9,59.7,55.9,51.9,88,59,27,29.98,29.91,10,1,14,0.00
2012-9-3,91.0,75.4,62.4,70.8,65.0,54.6,92,71,48,29.94,29.83,10,2,15,0.00
2012-9-4,88.0,75.0,68.7,75.1,70.0,66.6,97,85,57,29.87,29.66,9,2,13,1.62
2012-9-5,89.4,75.1,67.5,68.9,65.7,61.4,96,75,44,29.81,29.72,5,1,8,0.02
2012-9-6,86.2,74.4,68.2,71.6,67.6,63.1,94,80,55,29.81,29.69,8,1,11,0.13
2012-9-7,87.8,74.1,62.1,70.5,63.7,58.0,96,73,40,29.83,29.58,5,1,9,0.01
2012-9-8,76.1,67.1,57.7,67.9,61.7,54.6,95,83,70,29.67,29.33,15,2,28,0.53
2012-9-9,71.8,61.2,54.1,57.4,52.4,43.4,94,75,43,29.89,29.67,9,2,14,0.01
2012-9-10,71.8,59.7,50.4,52.3,45.8,37.6,93,64,34,30.06,29.89,12,2,17,0.00
2012-9-11,77.7,62.1,47.8,56.8,51.2,45.3,93,70,42,30.15,30.06,7,1,12,0.00
2012-9-12,86.0,69.2,56.1,60.3,53.6,48.9,82,60,31,30.19,30.11,6,1,10,0.00
2012-9-13,87.1,72.1,59.5,62.1,57.1,52.8,81,61,36,30.19,30.10,6,1,10,0.00
2012-9-14,82.6,66.9,55.9,66.4,59.2,54.2,96,78,48,30.10,29.94,18,2,23,0.18
2012-9-15,68.7,59.4,52.3,55.3,52.3,48.7,95,79,52,30.14,30.02,7,1,10,0.00
2012-9-16,74.7,62.3,51.1,58.2,53.3,48.7,96,75,47,30.04,29.92,8,1,12,0.00
2012-9-17,78.3,67.9,60.6,56.4,51.9,46.6,73,58,35,29.93,29.72,7,1,14,0.00
2012-9-18,74.5,63.8,51.3,66.0,59.2,48.1,95,85,66,29.73,29.34,16,2,22,0.53
2012-9-19,67.6,54.1,46.8,48.6,44.3,37.6,93,72,38,30.06,29.71,10,1,14,0.00
2012-9-20,75.6,60.7,46.0,51.8,45.5,41.2,84,60,32,30.04,29.81,8,2,15,0.00
2012-9-21,73.8,64.8,58.1,62.6,55.9,51.6,91,73,59,29.83,29.73,6,1,13,0.41
2012-9-22,62.4,57.7,50.4,58.3,53.6,43.8,96,86,69,29.83,29.48,10,2,17,0.30
2012-9-23,60.8,51.7,46.0,46.2,42.6,35.5,92,73,43,30.03,29.82,11,2,18,0.00
2012-9-24,60.4,51.8,43.0,45.4,42.2,38.5,94,72,48,30.04,29.85,9,2,19,0.00
2012-9-25,73.9,62.7,53.2,52.3,42.9,38.0,74,50,32,29.90,29.83,12,4,21,0.01
2012-9-26,70.3,63.6,57.7,62.9,56.8,43.1,89,79,58,30.03,29.81,10,2,14,0.00
2012-9-27,69.6,56.2,46.2,52.0,45.9,42.3,91,70,48,30.14,30.02,9,2,13,0.00
2012-9-28,61.9,53.8,47.3,53.9,47.5,42.6,92,80,56,30.06,29.93,6,0,9,0.03
2012-9-29,68.4,55.1,46.4,51.9,48.2,44.5,96,79,48,29.94,29.84,8,1,10,0.01
2012-9-30,63.7,55.1,48.0,53.4,49.4,46.1,96,82,61,29.84,29.73,9,1,13,0.08
2012-10-1,68.4,58.5,53.4,53.2,50.2,47.4,87,75,53,29.83,29.71,8,2,14,0.00
2012-10-2,65.5,60.6,53.8,62.9,57.1,49.1,97,88,79,29.86,29.75,5,1,7,0.01
2012-10-3,73.9,66.8,62.4,67.0,63.2,59.4,97,89,71,30.03,29.83,5,0,10,0.00
2012-10-4,75.9,66.5,61.3,60.4,56.1,51.5,90,71,44,30.05,29.93,8,2,15,0.00
2012-10-5,70.2,63.7,54.9,59.7,56.4,52.6,94,78,67,29.93,29.76,8,2,14,0.03
2012-10-6,56.8,50.9,46.9,53.3,42.5,33.4,97,75,47,29.92,29.69,12,3,24,0.69
2012-10-7,55.0,47.1,40.3,45.5,40.7,36.1,94,79,54,30.00,29.89,7,0,10,0.15
2012-10-8,56.1,46.4,39.2,44.1,41.3,37.9,96,83,58,30.11,30.00,6,1,10,0.01
2012-10-9,67.8,50.7,39.7,44.0,40.2,36.4,90,70,37,30.10,29.85,7,1,10,0.00
2012-10-10,57.6,49.9,44.1,46.2,40.4,32.6,87,70,53,29.88,29.65,11,3,27,0.00
2012-10-11,57.4,48.4,38.3,37.9,33.4,29.2,83,57,42,30.07,29.88,11,4,19,0.00
2012-10-12,54.5,43.4,31.5,45.6,33.8,23.1,94,72,38,30.32,29.91,13,4,18,0.21
2012-10-13,57.7,44.7,30.4,45.7,29.9,17.4,89,59,27,30.32,29.82,11,2,17,0.04
2012-10-14,77.4,67.5,55.8,62.7,57.0,44.9,95,71,51,29.83,29.49,14,5,24,0.34
2012-10-15,70.5,56.5,46.6,58.6,49.0,38.2,94,76,57,29.69,29.37,15,5,24,0.03
2012-10-16,54.1,47.0,41.4,40.7,38.4,34.3,91,73,53,29.81,29.69,12,3,20,0.00
2012-10-17,72.0,56.3,40.3,47.2,42.1,37.8,92,63,38,29.79,29.66,9,2,12,0.00
2012-10-18,70.9,59.5,50.9,49.9,46.3,40.6,94,63,44,29.77,29.58,16,4,24,0.27
2012-10-19,74.5,56.6,46.6,55.4,50.3,43.7,97,82,40,29.78,29.50,7,1,12,0.10
2012-10-20,58.6,52.0,47.5,54.5,45.3,39.8,95,79,53,29.66,29.50,9,3,17,0.05
2012-10-21,61.3,52.6,46.9,48.9,46.3,43.0,94,80,55,29.97,29.66,11,3,21,0.00
2012-10-22,69.3,55.5,47.5,50.5,45.6,41.5,96,72,38,30.02,29.95,8,1,12,0.00
2012-10-23,56.1,53.9,50.5,53.6,51.9,44.6,98,93,70,29.98,29.91,7,2,10,0.62
2012-10-24,61.7,56.9,52.5,59.2,55.8,51.9,98,96,88,30.00,29.95,5,0,8,0.02
2012-10-25,86.2,71.1,59.2,60.7,57.3,53.4,98,66,36,29.99,29.88,11,3,16,0.00
2012-10-26,78.4,62.9,48.7,57.7,53.5,46.5,94,73,47,30.06,29.89,14,5,20,0.27
2012-10-27,52.9,49.6,45.9,52.1,48.6,44.9,98,96,92,30.06,29.84,12,3,16,0.27
2012-10-28,46.2,44.8,43.9,45.4,44.0,42.8,99,97,95,29.96,29.77,8,3,13,0.37
2012-10-29,51.1,46.5,44.1,50.8,46.2,44.0,100,99,98,29.77,28.99,20,6,33,1.09
2012-10-30,56.5,52.4,45.1,56.3,48.6,40.6,100,87,68,29.28,28.93,26,7,38,0.22
2012-10-31,48.0,45.1,43.2,44.9,39.7,35.5,97,82,64,29.33,29.26,5,1,9,0.03
2012-11-1,46.2,44.0,42.4,45.2,41.6,38.8,97,91,81,29.50,29.31,12,6,21,0.12
2012-11-2,43.0,40.2,38.1,39.6,35.3,31.6,91,83,70,29.76,29.48,15,6,22,0.00
2012-11-3,40.5,37.9,35.8,36.6,33.6,29.0,97,85,71,29.95,29.75,13,6,19,0.05
2012-11-4,37.6,35.9,34.5,34.7,30.7,26.9,96,82,71,29.99,29.94,10,4,14,0.00
2012-11-5,39.4,36.1,34.5,34.6,28.7,23.1,94,75,60,30.08,29.95,8,2,10,0.01
2012-11-6,46.6,36.5,30.4,28.2,25.3,21.8,77,64,45,30.06,29.92,9,1,12,0.00
2012-11-7,44.4,34.4,25.2,31.6,26.3,21.8,91,74,44,29.98,29.92,11,2,15,0.00
2012-11-8,46.9,35.2,26.4,30.3,25.7,21.5,93,70,43,30.02,29.94,11,2,16,0.00
2012-11-9,50.9,42.3,33.1,42.1,36.5,28.5,89,80,60,30.08,29.96,8,2,13,0.00
2012-11-10,55.8,49.5,43.7,46.0,43.4,41.0,92,80,63,30.17,30.04,7,1,10,0.00
2012-11-11,75.6,65.7,55.6,45.6,39.5,30.6,69,39,20,30.15,30.03,11,4,17,0.00
2012-11-12,71.4,59.3,40.6,51.9,44.5,38.0,95,61,43,30.07,29.77,16,7,29,0.18
2012-11-13,41.2,38.2,36.7,39.0,27.3,21.9,92,65,53,30.42,30.04,12,4,21,0.01
2012-11-14,41.7,38.2,31.8,34.3,29.3,25.4,86,70,56,30.48,30.34,5,0,6,0.00
2012-11-15,55.0,38.3,29.3,31.9,28.9,25.7,90,71,40,30.35,30.19,6,1,8,0.00
2012-11-16,55.9,38.1,28.6,39.0,31.9,26.0,95,80,47,30.39,30.20,6,0,8,0.00
2012-11-17,61.0,39.8,27.5,42.0,33.3,25.6,96,80,43,30.51,30.38,4,0,6,0.00
2012-11-18,56.3,41.3,31.8,37.3,32.7,28.9,94,74,43,30.50,30.36,7,1,10,0.01
2012-11-19,55.9,39.7,32.4,38.2,33.2,28.5,91,78,46,30.36,30.11,4,0,5,0.00
2012-11-20,52.5,41.4,35.6,38.0,35.5,32.6,92,80,55,30.11,30.00,4,0,7,0.00
2012-11-21,66.2,42.5,29.5,40.4,33.9,27.5,97,76,30,30.13,30.04,5,0,7,0.01
2012-11-22,63.9,49.6,33.6,41.6,34.4,26.3,88,58,36,30.08,29.84,9,2,15,0.00
2012-11-23,56.7,48.5,34.5,46.7,36.0,25.2,91,64,45,29.84,29.53,18,8,27,0.00
2012-11-24,38.5,33.7,31.6,28.1,23.1,18.3,83,66,49,29.79,29.60,17,9,25,0.00
2012-11-25,34.7,32.5,30.0,30.5,26.1,19.0,92,78,59,29.78,29.67,11,5,18,0.00
2012-11-26,38.7,35.6,32.7,28.5,26.0,21.5,81,68,59,30.10,29.73,10,4,19,0.00
2012-11-27,38.3,34.7,32.0,28.0,24.1,21.4,70,65,56,30.16,30.08,8,2,10,0.00
2012-11-28,37.6,34.5,32.4,31.3,24.3,19.2,88,66,54,30.12,30.02,11,5,18,0.00
2012-11-29,45.0,38.1,30.0,35.2,28.4,20.9,82,68,61,30.15,30.05,15,5,23,0.00
2012-11-30,40.3,29.2,24.6,35.2,25.9,21.2,95,88,78,30.29,30.15,10,6,15,0.00
2012-12-1,50.2,39.0,27.0,42.6,33.9,25.7,97,83,62,30.23,30.04,9,2,15,0.00
2012-12-2,55.9,52.2,48.7,53.0,46.4,38.7,98,82,59,30.05,29.78,13,7,25,0.10
2012-12-3,60.6,50.5,45.1,54.6,45.6,41.7,91,84,64,30.12,29.95,7,1,12,0.00
2012-12-4,69.8,60.1,46.9,57.6,52.6,42.7,96,77,54,29.95,29.77,15,6,20,0.32
2012-12-5,46.9,36.1,28.9,43.3,27.8,17.6,89,72,53,30.25,29.85,16,7,24,0.00
2012-12-6,44.2,34.4,24.1,26.9,22.1,16.8,85,63,35,30.26,29.89,8,1,13,0.00
2012-12-7,49.5,43.8,39.6,41.8,34.9,20.0,92,72,43,29.90,29.80,8,1,10,0.00
2012-12-8,48.7,43.5,36.1,47.9,41.9,30.8,98,94,83,30.03,29.62,14,2,18,0.12
2012-12-9,47.1,36.7,32.0,44.3,32.5,24.1,97,85,74,30.15,29.61,11,4,17,0.24
2012-12-10,55.6,45.2,35.8,51.7,42.4,33.0,96,90,83,29.62,29.39,15,6,22,0.07
2012-12-11,35.8,32.6,29.3,33.7,29.0,25.6,92,86,77,30.03,29.60,9,2,13,0.00
2012-12-12,41.7,36.5,33.4,32.5,29.6,25.6,88,76,63,30.29,30.03,10,3,17,0.00
2012-12-13,48.4,39.2,32.2,29.0,24.5,20.9,80,57,38,30.31,30.05,10,2,15,0.00
2012-12-14,46.9,40.4,33.8,37.1,29.2,18.6,97,66,44,30.14,30.02,9,4,15,0.00
2012-12-15,43.3,37.6,30.0,37.0,33.7,28.2,96,86,68,30.17,29.82,8,2,13,0.00
2012-12-16,57.0,48.2,43.0,44.1,39.0,32.1,84,71,57,29.82,29.57,13,7,20,0.01
2012-12-17,50.4,48.1,45.7,47.0,44.8,42.5,97,88,79,29.63,29.40,10,2,15,0.13
2012-12-18,47.8,43.2,37.4,46.5,40.5,31.3,99,90,70,29.61,29.34,12,4,20,0.41
2012-12-19,42.6,38.1,33.3,35.7,32.4,30.6,96,80,67,30.06,29.60,9,3,14,0.00
2012-12-20,43.2,37.8,32.5,39.0,30.5,25.7,89,75,62,30.06,29.27,20,4,26,0.09
2012-12-21,42.1,36.6,27.9,39.9,34.3,26.6,100,91,78,29.29,29.06,17,6,26,0.34
2012-12-22,32.7,28.8,25.7,27.7,24.4,21.0,99,84,66,29.77,29.24,20,10,29,0.00
2012-12-23,35.4,32.3,28.0,28.9,25.6,20.0,94,77,67,29.87,29.65,14,6,21,0.00
2012-12-24,35.1,30.8,28.4,28.3,23.0,19.9,95,73,61,29.92,29.73,9,2,14,0.00
2012-12-25,38.7,31.2,28.6,30.4,27.8,26.1,97,87,68,30.19,29.76,7,1,10,0.03
2012-12-26,30.4,25.6,20.1,28.5,23.1,16.6,99,90,76,30.19,29.62,15,6,21,0.00
2012-12-27,28.6,26.5,25.2,28.1,25.7,23.9,98,97,95,29.91,29.57,13,7,21,0.00
2012-12-28,29.7,25.5,19.9,29.2,24.5,18.3,98,96,94,30.00,29.88,10,2,16,0.00
2012-12-29,30.4,27.0,18.9,30.0,26.2,17.4,99,97,94,29.88,29.52,12,3,15,0.00
2012-12-30,28.6,26.2,23.4,27.8,25.2,21.9,99,96,94,30.10,29.69,13,5,21,0.00
2012-12-31,34.9,30.4,25.9,31.0,28.2,25.1,99,91,79,30.04,29.70,15,9,28,0.00
2013-1-1,33.8,22.4,9.3,30.1,18.1,6.5,94,84,70,29.90,29.71,15,5,23,0.00